Time;durP1;ratioP1;P1;durP2;ratioP2;P2;SDS_P1;SDS_P2;PMS_P1;PMS_P2;Temp;Humidity;BMP_temperature;BMP_pressure;BME280_temperature;BME280_humidity;BME280_pressure;Samples;Min_cycle;Max_cycle;Signal;HPM_P1;HPM_P2
2022/06/09 00:01:22;;;;;;;;;;;13.40;99.90;;;;;;5045125;28;19925;-64
2022/06/09 00:03:51;;;;;;;;;;;13.40;99.90;;;;;;5048159;28;20308;-64
2022/06/09 00:06:18;;;;;;;;;;;13.30;99.90;;;;;;5042881;28;19983;-64
2022/06/09 00:08:46;;;;;;;;;;;13.30;99.90;;;;;;5044728;28;19925;-62
2022/06/09 00:11:15;;;;;;;;;;;13.20;99.90;;;;;;5046807;28;20044;-64
2022/06/09 00:13:42;;;;;;;;;;;13.10;99.90;;;;;;5035782;28;19928;-64
2022/06/09 00:16:11;;;;;;;;;;;13.20;99.90;;;;;;5047393;28;20315;-64
2022/06/09 00:18:38;;;;;;;;;;;13.20;99.90;;;;;;5044587;28;19924;-64
2022/06/09 00:21:05;;;;;;;;;;;13.20;99.90;;;;;;5047931;28;19929;-64
2022/06/09 00:23:31;;;;;;;;;;;13.20;99.90;;;;;;5045537;28;19924;-63
2022/06/09 00:25:58;;;;;;;;;;;13.20;99.90;;;;;;5044388;28;19947;-64
2022/06/09 00:28:25;;;;;;;;;;;13.20;99.90;;;;;;5049067;28;19967;-65
2022/06/09 00:30:52;;;;;;;;;;;13.30;99.90;;;;;;5047014;28;19929;-64
2022/06/09 00:33:21;;;;;;;;;;;13.30;99.90;;;;;;5041776;28;19995;-64
2022/06/09 00:35:47;;;;;;;;;;;13.40;99.90;;;;;;5048576;28;19975;-64
2022/06/09 00:38:14;;;;;;;;;;;13.40;99.90;;;;;;5043663;28;19959;-64
2022/06/09 00:40:41;;;;;;;;;;;13.50;99.90;;;;;;5047804;28;19952;-64
2022/06/09 00:43:08;;;;;;;;;;;13.50;99.90;;;;;;5055443;28;20455;-64
2022/06/09 00:45:35;;;;;;;;;;;13.50;99.90;;;;;;5048426;28;19924;-64
2022/06/09 00:48:06;;;;;;;;;;;13.50;99.90;;;;;;5046369;28;19937;-64
2022/06/09 00:50:37;;;;;;;;;;;13.60;99.90;;;;;;5040972;28;19924;-64
2022/06/09 00:53:06;;;;;;;;;;;13.60;99.90;;;;;;5047759;28;19933;-64
2022/06/09 00:55:34;;;;;;;;;;;13.60;99.90;;;;;;5043629;28;20438;-63
2022/06/09 00:58:05;;;;;;;;;;;13.50;99.90;;;;;;5047900;28;19925;-64
2022/06/09 01:00:35;;;;;;;;;;;13.50;99.90;;;;;;5031929;28;19925;-64
2022/06/09 01:03:03;;;;;;;;;;;13.50;99.90;;;;;;5048829;28;19925;-64
2022/06/09 01:05:31;;;;;;;;;;;13.60;99.90;;;;;;5031971;28;19925;-63
2022/06/09 01:08:01;;;;;;;;;;;13.70;99.90;;;;;;5042653;28;19925;-64
2022/06/09 01:10:29;;;;;;;;;;;13.70;99.90;;;;;;5045877;28;19925;-64
2022/06/09 01:12:57;;;;;;;;;;;13.60;99.90;;;;;;5042076;28;19925;-63
2022/06/09 01:15:28;;;;;;;;;;;13.70;99.90;;;;;;5045964;28;19933;-64
2022/06/09 01:17:57;;;;;;;;;;;13.70;99.90;;;;;;5043009;28;20039;-64
2022/06/09 01:20:30;;;;;;;;;;;13.70;99.90;;;;;;5047308;28;19971;-64
2022/06/09 01:23:15;;;;;;;;;;;13.70;99.90;;;;;;5045382;28;20015;-65
2022/06/09 01:25:51;;;;;;;;;;;13.70;99.90;;;;;;5037326;28;19948;-64
2022/06/09 01:28:33;;;;;;;;;;;13.60;99.90;;;;;;5047514;28;20309;-64
2022/06/09 01:31:03;;;;;;;;;;;13.50;99.90;;;;;;5045667;28;19925;-65
2022/06/09 01:33:32;;;;;;;;;;;13.60;99.90;;;;;;5029171;28;19925;-64
2022/06/09 01:36:05;;;;;;;;;;;13.60;99.90;;;;;;5047889;28;19925;-64
2022/06/09 01:38:43;;;;;;;;;;;13.60;99.90;;;;;;5030789;28;19928;-64
2022/06/09 01:41:10;;;;;;;;;;;13.60;99.90;;;;;;5045827;28;19924;-64
2022/06/09 01:43:37;;;;;;;;;;;13.60;99.90;;;;;;5042052;28;19928;-64
2022/06/09 01:46:08;;;;;;;;;;;13.50;99.90;;;;;;5048259;28;19924;-64
2022/06/09 01:48:35;;;;;;;;;;;13.50;99.90;;;;;;5049367;28;19936;-64
2022/06/09 01:51:03;;;;;;;;;;;13.50;99.90;;;;;;5041882;28;19932;-63
2022/06/09 01:53:33;;;;;;;;;;;13.50;99.90;;;;;;5039994;28;20353;-63
2022/06/09 01:56:01;;;;;;;;;;;13.50;99.90;;;;;;5046421;28;19928;-65
2022/06/09 01:58:30;;;;;;;;;;;13.50;99.90;;;;;;5050823;28;19925;-64
2022/06/09 02:00:59;;;;;;;;;;;13.50;99.90;;;;;;5047433;28;20447;-64
2022/06/09 02:03:29;;;;;;;;;;;13.50;99.90;;;;;;5051373;28;19925;-63
2022/06/09 02:05:58;;;;;;;;;;;13.50;99.90;;;;;;5049383;28;20023;-64
2022/06/09 02:08:25;;;;;;;;;;;13.40;99.90;;;;;;5045880;28;19979;-64
2022/06/09 02:10:54;;;;;;;;;;;13.30;99.90;;;;;;5048476;28;20400;-63
2022/06/09 02:13:22;;;;;;;;;;;13.30;99.90;;;;;;5044443;28;19928;-63
2022/06/09 02:15:50;;;;;;;;;;;13.30;99.90;;;;;;5050326;28;19924;-63
2022/06/09 02:18:19;;;;;;;;;;;13.20;99.90;;;;;;5047607;28;19925;-63
2022/06/09 02:20:49;;;;;;;;;;;13.20;99.90;;;;;;5045043;28;19932;-63
2022/06/09 02:23:17;;;;;;;;;;;13.10;99.90;;;;;;5048247;28;19925;-64
2022/06/09 02:25:44;;;;;;;;;;;13.10;99.90;;;;;;5045666;28;19925;-63
2022/06/09 02:28:11;;;;;;;;;;;13.10;99.90;;;;;;5048698;28;19929;-64
2022/06/09 02:30:38;;;;;;;;;;;13.10;99.90;;;;;;5046371;28;19928;-64
2022/06/09 02:33:05;;;;;;;;;;;13.10;99.90;;;;;;5051066;28;19931;-65
2022/06/09 02:35:31;;;;;;;;;;;13.10;99.90;;;;;;5047444;28;19928;-64
2022/06/09 02:38:00;;;;;;;;;;;13.10;99.90;;;;;;5044775;28;19987;-64
2022/06/09 02:40:27;;;;;;;;;;;13.10;99.90;;;;;;5046801;28;19960;-64
2022/06/09 02:42:54;;;;;;;;;;;13.10;99.90;;;;;;5045576;28;19935;-63
2022/06/09 02:45:21;;;;;;;;;;;13.00;99.90;;;;;;5047569;28;19929;-64
2022/06/09 02:47:48;;;;;;;;;;;13.00;99.90;;;;;;5046374;28;19931;-64
2022/06/09 02:50:15;;;;;;;;;;;13.00;99.90;;;;;;5049259;28;19924;-64
2022/06/09 02:52:42;;;;;;;;;;;13.00;99.90;;;;;;5048131;28;19925;-65
2022/06/09 02:55:11;;;;;;;;;;;13.00;99.90;;;;;;5045069;28;20455;-64
2022/06/09 02:57:38;;;;;;;;;;;13.00;99.90;;;;;;5048849;28;19929;-64
2022/06/09 03:00:06;;;;;;;;;;;12.90;99.90;;;;;;5041836;28;20315;-64
2022/06/09 03:02:33;;;;;;;;;;;12.90;99.90;;;;;;5049820;28;19925;-64
2022/06/09 03:05:00;;;;;;;;;;;12.90;99.90;;;;;;5046838;28;19925;-65
2022/06/09 03:07:27;;;;;;;;;;;12.90;99.90;;;;;;5043574;28;20319;-64
2022/06/09 03:09:54;;;;;;;;;;;12.90;99.90;;;;;;5047671;28;19974;-63
2022/06/09 03:12:22;;;;;;;;;;;12.90;99.90;;;;;;5038935;28;19925;-64
2022/06/09 03:14:49;;;;;;;;;;;12.80;99.90;;;;;;5044383;28;19928;-64
2022/06/09 03:17:16;;;;;;;;;;;12.80;99.90;;;;;;5058870;28;20392;-63
2022/06/09 03:19:43;;;;;;;;;;;12.90;99.90;;;;;;5041153;28;19925;-64
2022/06/09 03:22:09;;;;;;;;;;;13.00;99.90;;;;;;5045491;28;19925;-63
2022/06/09 03:24:37;;;;;;;;;;;13.00;99.90;;;;;;5045003;28;19933;-64
2022/06/09 03:27:04;;;;;;;;;;;12.90;99.90;;;;;;5049004;28;20369;-63
2022/06/09 03:29:33;;;;;;;;;;;12.90;99.90;;;;;;5046113;28;20043;-63
2022/06/09 03:31:59;;;;;;;;;;;12.90;99.90;;;;;;5047127;28;19925;-64
2022/06/09 03:34:26;;;;;;;;;;;13.00;99.90;;;;;;5046974;28;19929;-63
2022/06/09 03:36:53;;;;;;;;;;;13.00;99.90;;;;;;5045863;28;19925;-63
2022/06/09 03:39:20;;;;;;;;;;;13.00;99.90;;;;;;5048099;28;20258;-64
2022/06/09 03:41:46;;;;;;;;;;;13.10;99.90;;;;;;5041756;28;19948;-64
2022/06/09 03:44:13;;;;;;;;;;;13.10;99.90;;;;;;5048756;28;19937;-63
2022/06/09 03:46:41;;;;;;;;;;;13.10;99.90;;;;;;5045213;28;19932;-63
2022/06/09 03:49:08;;;;;;;;;;;13.10;99.90;;;;;;5046822;28;19986;-63
2022/06/09 03:51:35;;;;;;;;;;;13.10;99.90;;;;;;5047823;28;19929;-64
2022/06/09 03:54:02;;;;;;;;;;;13.10;99.90;;;;;;5045675;28;19924;-63
2022/06/09 03:56:28;;;;;;;;;;;13.10;99.90;;;;;;5048449;28;19986;-64
2022/06/09 03:58:56;;;;;;;;;;;13.10;99.90;;;;;;5043314;28;19924;-64
2022/06/09 04:01:22;;;;;;;;;;;13.10;99.90;;;;;;5049109;28;19925;-63
2022/06/09 04:03:51;;;;;;;;;;;13.20;99.90;;;;;;5044115;28;19929;-63
2022/06/09 04:06:18;;;;;;;;;;;13.20;99.90;;;;;;5032194;28;19978;-63
2022/06/09 04:08:47;;;;;;;;;;;13.20;99.90;;;;;;5047174;28;19979;-64
2022/06/09 04:11:13;;;;;;;;;;;13.20;99.90;;;;;;5048748;28;20362;-64
2022/06/09 04:13:40;;;;;;;;;;;13.20;99.90;;;;;;5047961;28;19929;-64
2022/06/09 04:16:10;;;;;;;;;;;13.20;99.90;;;;;;5059933;28;19925;-63
2022/06/09 04:18:37;;;;;;;;;;;13.30;99.90;;;;;;5039634;28;19932;-64
2022/06/09 04:21:05;;;;;;;;;;;13.40;99.90;;;;;;5034099;28;19940;-65
2022/06/09 04:23:32;;;;;;;;;;;13.50;99.90;;;;;;5041561;28;19925;-63
2022/06/09 04:25:59;;;;;;;;;;;13.50;99.90;;;;;;5046872;28;19933;-64
2022/06/09 04:28:26;;;;;;;;;;;13.60;99.90;;;;;;5039499;28;19975;-70
2022/06/09 04:30:53;;;;;;;;;;;13.60;99.90;;;;;;5048794;28;19932;-65
2022/06/09 04:33:19;;;;;;;;;;;13.70;99.90;;;;;;5044092;28;19932;-64
2022/06/09 04:35:46;;;;;;;;;;;13.80;99.90;;;;;;5041902;28;19925;-63
2022/06/09 04:38:14;;;;;;;;;;;13.80;99.90;;;;;;5044575;28;19938;-64
2022/06/09 04:40:42;;;;;;;;;;;13.90;99.90;;;;;;5043820;28;19929;-65
2022/06/09 04:43:10;;;;;;;;;;;14.00;99.90;;;;;;5046175;28;19990;-63
2022/06/09 04:45:38;;;;;;;;;;;14.00;99.90;;;;;;5042821;28;19924;-64
2022/06/09 04:48:05;;;;;;;;;;;14.10;99.90;;;;;;5047407;28;19933;-64
2022/06/09 04:50:32;;;;;;;;;;;14.10;99.90;;;;;;5039872;28;19928;-64
2022/06/09 04:52:58;;;;;;;;;;;14.10;99.90;;;;;;5042039;28;19932;-65
2022/06/09 04:55:27;;;;;;;;;;;14.10;99.90;;;;;;5044178;28;19929;-64
2022/06/09 04:57:55;;;;;;;;;;;14.10;99.90;;;;;;5042222;28;20023;-64
2022/06/09 05:00:22;;;;;;;;;;;14.10;99.90;;;;;;5044878;28;19979;-64
2022/06/09 05:02:50;;;;;;;;;;;14.10;99.90;;;;;;5033858;28;19963;-64
2022/06/09 05:05:18;;;;;;;;;;;14.00;99.90;;;;;;5048156;28;20307;-64
2022/06/09 05:07:44;;;;;;;;;;;14.00;99.90;;;;;;5032256;28;19929;-65
2022/06/09 05:10:11;;;;;;;;;;;13.90;99.90;;;;;;5038009;28;19928;-64
2022/06/09 05:12:40;;;;;;;;;;;13.90;99.90;;;;;;5033192;28;19929;-64
2022/06/09 05:15:07;;;;;;;;;;;13.90;99.90;;;;;;5037138;28;19932;-65
2022/06/09 05:17:34;;;;;;;;;;;13.80;99.90;;;;;;5037005;28;19929;-63
2022/06/09 05:20:01;;;;;;;;;;;13.80;99.90;;;;;;5038810;28;19933;-63
2022/06/09 05:22:27;;;;;;;;;;;13.80;99.90;;;;;;5040422;28;19925;-64
2022/06/09 05:24:58;;;;;;;;;;;13.80;99.90;;;;;;5037044;28;19976;-62
2022/06/09 05:27:24;;;;;;;;;;;13.80;99.90;;;;;;5040121;28;19925;-63
2022/06/09 05:29:53;;;;;;;;;;;13.80;99.90;;;;;;5039588;28;19936;-63
2022/06/09 05:32:19;;;;;;;;;;;13.80;99.90;;;;;;5042800;28;19929;-64
2022/06/09 05:34:47;;;;;;;;;;;13.80;99.90;;;;;;5037133;28;20400;-69
2022/06/09 05:37:13;;;;;;;;;;;13.80;99.90;;;;;;5037087;28;20349;-63
2022/06/09 05:45:22;;;;;;;;;;;14.20;99.90;;;;;;5034794;28;19921;-63
2022/06/09 05:47:49;;;;;;;;;;;14.20;99.90;;;;;;5036783;28;19925;-64
2022/06/09 05:50:16;;;;;;;;;;;14.30;99.90;;;;;;5034657;28;19928;-62
2022/06/09 05:52:43;;;;;;;;;;;14.40;99.90;;;;;;5028549;28;19928;-63
2022/06/09 05:55:10;;;;;;;;;;;14.50;99.90;;;;;;5035167;28;19933;-63
2022/06/09 05:57:37;;;;;;;;;;;14.50;99.90;;;;;;5039835;28;19939;-63
2022/06/09 06:00:05;;;;;;;;;;;14.50;99.90;;;;;;5043395;28;19924;-63
2022/06/09 06:02:40;;;;;;;;;;;14.50;99.90;;;;;;5053316;28;20023;-63
2022/06/09 06:06:33;;;;;;;;;;;14.50;99.90;;;;;;5045451;28;19925;-64
2022/06/09 06:07:54;;;;;;;;;;;14.50;99.90;;;;;;5045035;28;19967;-63
2022/06/09 06:10:21;;;;;;;;;;;14.50;99.90;;;;;;5045038;28;19929;-63
2022/06/09 06:12:48;;;;;;;;;;;14.50;99.90;;;;;;5040066;28;19928;-63
2022/06/09 06:15:14;;;;;;;;;;;14.50;99.90;;;;;;5041816;28;19975;-63
2022/06/09 06:17:43;;;;;;;;;;;14.60;99.90;;;;;;5045163;28;19929;-63
2022/06/09 06:20:10;;;;;;;;;;;14.60;99.90;;;;;;5041352;28;20362;-64
2022/06/09 06:22:37;;;;;;;;;;;14.60;99.90;;;;;;5046814;28;20470;-64
2022/06/09 06:25:06;;;;;;;;;;;14.60;99.90;;;;;;5050007;28;20369;-64
2022/06/09 06:27:32;;;;;;;;;;;14.70;99.90;;;;;;5046976;28;19960;-64
2022/06/09 06:29:59;;;;;;;;;;;14.70;99.90;;;;;;5048587;28;19931;-63
2022/06/09 06:32:26;;;;;;;;;;;14.70;99.90;;;;;;5048729;28;19925;-63
2022/06/09 06:34:54;;;;;;;;;;;14.70;99.90;;;;;;5053291;28;20388;-64
2022/06/09 06:37:21;;;;;;;;;;;14.70;99.90;;;;;;5049359;28;19925;-64
2022/06/09 06:39:48;;;;;;;;;;;14.70;99.90;;;;;;5047164;28;19925;-63
2022/06/09 06:42:15;;;;;;;;;;;14.70;99.90;;;;;;5049816;28;19959;-64
2022/06/09 06:44:45;;;;;;;;;;;14.70;99.90;;;;;;5046067;28;19929;-62
2022/06/09 06:47:12;;;;;;;;;;;14.70;99.90;;;;;;5050226;28;19932;-63
2022/06/09 06:49:38;;;;;;;;;;;14.80;99.90;;;;;;5048302;28;19925;-64
2022/06/09 06:52:07;;;;;;;;;;;14.90;99.90;;;;;;5048586;28;19925;-65
2022/06/09 06:54:34;;;;;;;;;;;14.90;99.90;;;;;;5047512;28;20285;-63
2022/06/09 06:57:03;;;;;;;;;;;15.00;99.90;;;;;;5048689;28;19924;-64
2022/06/09 06:59:30;;;;;;;;;;;15.00;99.90;;;;;;5039009;28;19924;-65
2022/06/09 07:01:56;;;;;;;;;;;15.10;99.90;;;;;;5044992;28;19925;-64
2022/06/09 07:04:23;;;;;;;;;;;15.20;99.90;;;;;;5050075;28;19932;-60
2022/06/09 07:06:50;;;;;;;;;;;15.20;99.90;;;;;;5047168;28;19974;-64
2022/06/09 07:09:18;;;;;;;;;;;15.10;99.90;;;;;;5049355;28;19928;-64
2022/06/09 07:11:45;;;;;;;;;;;15.40;99.90;;;;;;5042249;28;19925;-65
2022/06/09 07:14:12;;;;;;;;;;;15.40;99.90;;;;;;5043364;28;19932;-64
2022/06/09 07:16:39;;;;;;;;;;;15.50;99.90;;;;;;5043884;28;20420;-63
2022/06/09 07:19:06;;;;;;;;;;;15.70;99.90;;;;;;5041108;28;20359;-64
2022/06/09 07:21:33;;;;;;;;;;;15.60;99.90;;;;;;5045413;28;19982;-64
2022/06/09 07:24:00;;;;;;;;;;;15.70;99.90;;;;;;5046604;28;20306;-64
2022/06/09 07:26:29;;;;;;;;;;;15.70;99.90;;;;;;5047116;28;19956;-63
2022/06/09 07:28:55;;;;;;;;;;;15.70;99.90;;;;;;5044321;28;19925;-63
2022/06/09 07:31:22;;;;;;;;;;;15.90;99.90;;;;;;5046771;28;19929;-64
2022/06/09 07:33:49;;;;;;;;;;;15.90;99.90;;;;;;5044883;28;19928;-63
2022/06/09 07:36:17;;;;;;;;;;;15.80;99.90;;;;;;5047959;28;19925;-63
2022/06/09 07:38:44;;;;;;;;;;;15.70;99.90;;;;;;5045315;28;20478;-62
2022/06/09 07:41:11;;;;;;;;;;;15.70;99.90;;;;;;5046193;28;19928;-63
2022/06/09 07:43:40;;;;;;;;;;;15.70;99.90;;;;;;5043294;28;19925;-65
2022/06/09 07:46:06;;;;;;;;;;;15.80;99.90;;;;;;5041250;28;19931;-64
2022/06/09 07:48:33;;;;;;;;;;;15.80;99.90;;;;;;5037616;28;19928;-64
2022/06/09 07:51:00;;;;;;;;;;;15.70;99.90;;;;;;5035955;28;19925;-65
2022/06/09 07:53:27;;;;;;;;;;;15.80;99.90;;;;;;5034993;28;19925;-64
2022/06/09 07:55:54;;;;;;;;;;;15.90;99.90;;;;;;5043138;28;19978;-64
2022/06/09 07:58:21;;;;;;;;;;;15.90;99.90;;;;;;5044770;28;19948;-69
2022/06/09 08:00:49;;;;;;;;;;;16.10;99.90;;;;;;5042100;28;19924;-62
2022/06/09 08:03:17;;;;;;;;;;;16.00;99.90;;;;;;5043320;28;19925;-64
2022/06/09 08:05:44;;;;;;;;;;;16.10;99.90;;;;;;5041172;28;19929;-64
2022/06/09 08:08:11;;;;;;;;;;;16.20;99.90;;;;;;5042036;28;19928;-63
2022/06/09 08:10:38;;;;;;;;;;;16.10;99.90;;;;;;5043592;28;19924;-64
2022/06/09 08:13:05;;;;;;;;;;;16.10;99.90;;;;;;5043766;28;19961;-63
2022/06/09 08:15:32;;;;;;;;;;;16.20;99.90;;;;;;5038691;28;19929;-64
2022/06/09 08:18:00;;;;;;;;;;;16.10;99.90;;;;;;5043106;28;19932;-64
2022/06/09 08:20:28;;;;;;;;;;;16.20;99.90;;;;;;5040309;28;19929;-64
2022/06/09 08:23:00;;;;;;;;;;;16.40;99.90;;;;;;5042382;28;19955;-63
2022/06/09 08:25:27;;;;;;;;;;;16.60;99.90;;;;;;5047886;28;19925;-62
2022/06/09 08:27:53;;;;;;;;;;;16.40;99.90;;;;;;5043462;28;19932;-64
2022/06/09 08:30:20;;;;;;;;;;;16.30;99.90;;;;;;5048810;28;20400;-64
2022/06/09 08:32:47;;;;;;;;;;;16.40;99.90;;;;;;5045148;28;19925;-63
2022/06/09 08:35:17;;;;;;;;;;;16.50;99.90;;;;;;5047759;28;19924;-64
2022/06/09 08:37:45;;;;;;;;;;;16.60;99.90;;;;;;5047465;28;19931;-63
2022/06/09 08:40:13;;;;;;;;;;;16.60;99.90;;;;;;5051564;28;20024;-65
2022/06/09 08:42:48;;;;;;;;;;;16.80;99.90;;;;;;5048203;28;19925;-64
2022/06/09 08:45:17;;;;;;;;;;;16.60;99.90;;;;;;5041211;28;19925;-65
2022/06/09 08:47:46;;;;;;;;;;;16.60;99.90;;;;;;5049172;28;19924;-63
2022/06/09 08:50:16;;;;;;;;;;;16.60;99.90;;;;;;5044150;28;19933;-65
2022/06/09 08:52:51;;;;;;;;;;;16.70;99.90;;;;;;5052577;28;19929;-65
2022/06/09 08:55:23;;;;;;;;;;;17.00;99.90;;;;;;5048644;28;19925;-65
2022/06/09 08:57:52;;;;;;;;;;;16.90;99.90;;;;;;5046388;28;19928;-64
2022/06/09 09:00:21;;;;;;;;;;;16.90;99.90;;;;;;5046810;28;20447;-64
2022/06/09 09:02:50;;;;;;;;;;;16.90;99.90;;;;;;5047360;28;20393;-65
2022/06/09 09:05:20;;;;;;;;;;;16.90;99.90;;;;;;5050038;28;19968;-64
2022/06/09 09:07:48;;;;;;;;;;;16.90;99.90;;;;;;5047900;28;19924;-64
2022/06/09 09:10:22;;;;;;;;;;;16.90;99.90;;;;;;5050144;28;19975;-64
2022/06/09 09:12:54;;;;;;;;;;;16.90;99.90;;;;;;5048798;28;19925;-64
2022/06/09 09:15:22;;;;;;;;;;;16.80;99.90;;;;;;5043050;28;19978;-64
2022/06/09 09:17:54;;;;;;;;;;;16.90;99.90;;;;;;5049835;28;19924;-64
2022/06/09 09:20:22;;;;;;;;;;;16.90;99.90;;;;;;5042853;28;20412;-64
2022/06/09 09:22:53;;;;;;;;;;;17.10;99.90;;;;;;5050044;28;19929;-63
2022/06/09 09:25:26;;;;;;;;;;;17.20;99.90;;;;;;5049251;28;19979;-64
2022/06/09 09:27:54;;;;;;;;;;;17.60;99.90;;;;;;5043444;28;19929;-64
2022/06/09 09:30:22;;;;;;;;;;;17.70;99.90;;;;;;5051636;28;20011;-64
2022/06/09 09:32:50;;;;;;;;;;;17.90;99.90;;;;;;5048607;28;19975;-64
2022/06/09 09:35:19;;;;;;;;;;;18.10;99.90;;;;;;5051586;28;19936;-64
2022/06/09 09:37:47;;;;;;;;;;;18.40;99.90;;;;;;5050394;28;19929;-63
2022/06/09 09:40:17;;;;;;;;;;;18.30;99.90;;;;;;5051942;28;19925;-64
2022/06/09 09:42:46;;;;;;;;;;;18.00;99.90;;;;;;5051570;28;19929;-64
2022/06/09 09:45:17;;;;;;;;;;;18.00;99.90;;;;;;5060675;28;19937;-63
2022/06/09 09:47:47;;;;;;;;;;;18.00;99.90;;;;;;5051848;28;19925;-64
2022/06/09 09:50:21;;;;;;;;;;;18.00;99.90;;;;;;5044168;28;19979;-60
2022/06/09 09:52:55;;;;;;;;;;;17.90;99.90;;;;;;5051272;28;20403;-58
2022/06/09 09:55:27;;;;;;;;;;;18.00;99.90;;;;;;5054248;28;20168;-64
2022/06/09 09:58:24;;;;;;;;;;;18.20;99.90;;;;;;5036248;28;19932;-59
2022/06/09 10:00:55;;;;;;;;;;;18.40;99.90;;;;;;5029234;28;20335;-60
2022/06/09 10:09:05;;;;;;;;;;;18.20;99.90;;;;;;5035047;28;19933;-62
2022/06/09 10:14:37;;;;;;;;;;;18.70;99.90;;;;;;5059122;28;19936;-63
2022/06/09 10:17:08;;;;;;;;;;;19.00;99.90;;;;;;5047486;28;19954;-63
2022/06/09 10:19:34;;;;;;;;;;;19.10;99.90;;;;;;5040032;28;19925;-64
2022/06/09 10:22:02;;;;;;;;;;;19.00;99.90;;;;;;5048293;28;20414;-63
2022/06/09 10:24:32;;;;;;;;;;;19.20;99.90;;;;;;5064255;22;19955;-65
2022/06/09 10:26:59;;;;;;;;;;;19.10;99.90;;;;;;5055519;28;19974;-66
2022/06/09 10:29:30;;;;;;;;;;;19.20;99.90;;;;;;5055057;28;19956;-65
2022/06/09 10:31:59;;;;;;;;;;;19.00;99.90;;;;;;5055135;28;20350;-66
2022/06/09 10:34:35;;;;;;;;;;;19.50;99.90;;;;;;5058734;28;20026;-67
2022/06/09 10:37:04;;;;;;;;;;;19.70;99.90;;;;;;5069479;28;20005;-66
2022/06/09 10:39:35;;;;;;;;;;;19.50;99.90;;;;;;5070839;28;19970;-66
2022/06/09 10:42:03;;;;;;;;;;;19.40;99.90;;;;;;5075497;28;19971;-67
2022/06/09 10:44:32;;;;;;;;;;;19.30;99.90;;;;;;5071503;28;20384;-66
2022/06/09 10:55:24;;;;;;;;;;;20.10;99.90;;;;;;5097228;28;19920;-66
2022/06/09 10:57:56;;;;;;;;;;;20.30;99.90;;;;;;5089948;28;19997;-66
2022/06/09 11:00:25;;;;;;;;;;;20.00;99.90;;;;;;5083950;28;20019;-66
2022/06/09 11:02:54;;;;;;;;;;;19.70;99.90;;;;;;5074682;28;19936;-66
2022/06/09 11:05:24;;;;;;;;;;;19.50;99.90;;;;;;5073845;28;20314;-67
2022/06/09 11:07:58;;;;;;;;;;;19.60;99.90;;;;;;5074487;28;20301;-68
2022/06/09 11:10:28;;;;;;;;;;;19.80;99.90;;;;;;5067981;28;20010;-68
2022/06/09 11:13:00;;;;;;;;;;;20.20;99.90;;;;;;5071259;28;20446;-67
2022/06/09 11:15:33;;;;;;;;;;;20.40;99.90;;;;;;5073603;28;20399;-67
2022/06/09 11:18:10;;;;;;;;;;;20.80;99.90;;;;;;5074123;28;19927;-67
2022/06/09 11:20:47;;;;;;;;;;;20.80;99.90;;;;;;5071277;28;19931;-67
2022/06/09 11:23:19;;;;;;;;;;;20.60;99.90;;;;;;5073530;28;19939;-67
2022/06/09 11:25:50;;;;;;;;;;;20.40;99.90;;;;;;5073066;28;20396;-67
2022/06/09 11:28:26;;;;;;;;;;;20.50;99.90;;;;;;5071722;28;19928;-67
2022/06/09 11:31:01;;;;;;;;;;;20.70;99.90;;;;;;5074097;28;19962;-67
2022/06/09 11:33:36;;;;;;;;;;;20.80;99.90;;;;;;5075149;28;20406;-67
2022/06/09 11:36:09;;;;;;;;;;;20.80;99.90;;;;;;5073247;28;19963;-67
2022/06/09 11:38:42;;;;;;;;;;;20.20;99.90;;;;;;5105381;28;19924;-68
2022/06/09 11:41:13;;;;;;;;;;;20.10;99.90;;;;;;5074870;28;19932;-67
2022/06/09 11:43:45;;;;;;;;;;;19.80;99.90;;;;;;5071416;28;19925;-67
2022/06/09 11:46:15;;;;;;;;;;;20.60;99.90;;;;;;5074282;28;19927;-67
2022/06/09 11:48:44;;;;;;;;;;;22.10;99.90;;;;;;5071465;28;19924;-67
2022/06/09 11:51:16;;;;;;;;;;;22.90;99.90;;;;;;5074030;28;19928;-67
2022/06/09 11:53:46;;;;;;;;;;;23.80;99.90;;;;;;5068866;28;19931;-64
2022/06/09 11:56:33;;;;;;;;;;;23.30;99.90;;;;;;5069788;28;19939;-65
2022/06/09 11:59:00;;;;;;;;;;;22.40;99.90;;;;;;5066041;28;19924;-63
2022/06/09 12:01:45;;;;;;;;;;;21.60;99.90;;;;;;5074158;28;19924;-63
2022/06/09 12:04:16;;;;;;;;;;;21.20;99.90;;;;;;5073406;28;19924;-65
2022/06/09 12:07:02;;;;;;;;;;;21.70;99.90;;;;;;5103736;28;19948;-67
2022/06/09 12:09:34;;;;;;;;;;;22.00;99.90;;;;;;5083402;28;19940;-68
2022/06/09 12:12:02;;;;;;;;;;;23.80;99.90;;;;;;5102986;28;19931;-67
2022/06/09 12:14:30;;;;;;;;;;;24.00;99.90;;;;;;5072284;28;19932;-67
2022/06/09 12:17:01;;;;;;;;;;;22.90;99.90;;;;;;5098495;28;19931;-67
2022/06/09 12:19:31;;;;;;;;;;;20.80;99.90;;;;;;5070558;28;20300;-67
2022/06/09 12:22:00;;;;;;;;;;;19.70;99.90;;;;;;5073015;28;19930;-67
2022/06/09 12:24:30;;;;;;;;;;;18.90;99.90;;;;;;5072445;28;19924;-67
2022/06/09 12:27:05;;;;;;;;;;;18.20;99.90;;;;;;5093630;28;19924;-67
2022/06/09 12:29:41;;;;;;;;;;;17.80;99.90;;;;;;5072582;28;19924;-67
2022/06/09 12:32:08;;;;;;;;;;;;;;;;;;5072462;28;19977;-67
2022/06/09 12:34:37;;;;;;;;;;;17.00;99.90;;;;;;5088453;28;19928;-67
2022/06/09 12:37:06;;;;;;;;;;;16.90;99.90;;;;;;5099584;28;19952;-71
2022/06/09 12:39:35;;;;;;;;;;;16.60;99.90;;;;;;5069606;28;20311;-67
2022/06/09 12:42:03;;;;;;;;;;;16.40;99.90;;;;;;5071960;28;19932;-67
2022/06/09 12:44:31;;;;;;;;;;;16.30;99.90;;;;;;5095083;28;19970;-67
2022/06/09 12:47:00;;;;;;;;;;;16.10;99.90;;;;;;5071884;28;19931;-67
2022/06/09 12:49:28;;;;;;;;;;;16.10;99.90;;;;;;5071495;28;19924;-66
2022/06/09 12:52:20;;;;;;;;;;;16.00;99.90;;;;;;5065635;28;19974;-67
2022/06/09 12:54:48;;;;;;;;;;;16.00;99.90;;;;;;5086289;28;20000;-67
2022/06/09 12:57:20;;;;;;;;;;;15.90;99.90;;;;;;5071006;28;20023;-68
2022/06/09 12:59:59;;;;;;;;;;;15.90;99.90;;;;;;5071545;28;20024;-68
2022/06/09 13:02:28;;;;;;;;;;;15.90;99.90;;;;;;5087297;28;19928;-67
2022/06/09 13:04:56;;;;;;;;;;;15.90;99.90;;;;;;5098954;28;20296;-67
2022/06/09 13:07:25;;;;;;;;;;;15.90;99.90;;;;;;5095593;28;19932;-67
2022/06/09 13:10:00;;;;;;;;;;;16.00;99.90;;;;;;5072148;28;19924;-68
2022/06/09 13:15:17;;;;;;;;;;;16.20;99.90;;;;;;5071750;28;19920;-67
2022/06/09 13:17:44;;;;;;;;;;;16.30;99.90;;;;;;5073011;28;19977;-67
2022/06/09 13:20:14;;;;;;;;;;;16.40;99.90;;;;;;5096706;28;19931;-67
2022/06/09 13:22:43;;;;;;;;;;;16.50;99.90;;;;;;5072304;28;20365;-68
2022/06/09 13:25:13;;;;;;;;;;;16.60;99.90;;;;;;5072098;28;20435;-67
2022/06/09 13:27:41;;;;;;;;;;;16.80;99.90;;;;;;5104584;28;19928;-67
2022/06/09 13:30:09;;;;;;;;;;;16.90;99.90;;;;;;5070698;28;19967;-67
2022/06/09 13:32:38;;;;;;;;;;;17.00;99.90;;;;;;5072102;28;19924;-68
2022/06/09 13:35:25;;;;;;;;;;;17.10;99.90;;;;;;5071081;28;19931;-70
2022/06/09 13:38:01;;;;;;;;;;;17.20;99.90;;;;;;5071668;28;19924;-66
2022/06/09 13:40:40;;;;;;;;;;;17.20;99.90;;;;;;5075000;28;19942;-67
2022/06/09 13:43:15;;;;;;;;;;;16.90;99.90;;;;;;5076263;28;19931;-66
2022/06/09 13:45:48;;;;;;;;;;;17.00;99.90;;;;;;5090527;28;20351;-72
2022/06/09 13:48:17;;;;;;;;;;;17.30;99.90;;;;;;5075159;28;20391;-75
2022/06/09 13:50:46;;;;;;;;;;;17.20;99.90;;;;;;5072097;28;19932;-67
2022/06/09 13:53:16;;;;;;;;;;;17.40;99.90;;;;;;5075744;28;19932;-68
2022/06/09 13:55:43;;;;;;;;;;;17.70;99.90;;;;;;5105655;28;19924;-67
2022/06/09 13:58:11;;;;;;;;;;;17.90;99.90;;;;;;5106399;28;19924;-66
2022/06/09 14:00:42;;;;;;;;;;;18.00;99.90;;;;;;5074802;28;19924;-66
2022/06/09 14:03:12;;;;;;;;;;;18.20;99.90;;;;;;5073907;28;19939;-66
2022/06/09 14:05:41;;;;;;;;;;;18.20;99.90;;;;;;5074909;28;19931;-66
2022/06/09 14:08:08;;;;;;;;;;;18.40;99.90;;;;;;5071929;28;19925;-67
2022/06/09 14:10:36;;;;;;;;;;;18.40;99.90;;;;;;5074557;28;19928;-67
2022/06/09 14:13:04;;;;;;;;;;;18.40;99.90;;;;;;5074704;28;19924;-67
2022/06/09 14:15:32;;;;;;;;;;;18.20;99.90;;;;;;5090092;28;19928;-67
2022/06/09 14:17:59;;;;;;;;;;;18.20;99.90;;;;;;5074098;28;19924;-66
2022/06/09 14:20:28;;;;;;;;;;;18.40;99.90;;;;;;5074894;28;19931;-67
2022/06/09 14:22:55;;;;;;;;;;;18.60;99.90;;;;;;5094970;28;19932;-66
2022/06/09 14:25:22;;;;;;;;;;;19.20;99.90;;;;;;5074209;28;20447;-67
2022/06/09 14:27:50;;;;;;;;;;;19.70;99.90;;;;;;5074852;28;20348;-67
2022/06/09 14:30:18;;;;;;;;;;;20.40;99.90;;;;;;5073148;28;19924;-67
2022/06/09 14:32:46;;;;;;;;;;;21.10;99.90;;;;;;5100448;28;19928;-66
2022/06/09 14:35:16;;;;;;;;;;;21.00;99.90;;;;;;5074530;28;19931;-67
2022/06/09 14:37:43;;;;;;;;;;;21.20;99.90;;;;;;5107339;28;19924;-67
2022/06/09 14:40:19;;;;;;;;;;;20.80;99.90;;;;;;5073671;28;19924;-66
2022/06/09 14:42:46;;;;;;;;;;;20.50;99.90;;;;;;5074723;28;19982;-66
2022/06/09 14:45:15;;;;;;;;;;;20.10;99.90;;;;;;5074580;28;19946;-67
2022/06/09 14:47:41;;;;;;;;;;;20.00;99.90;;;;;;5074917;28;19935;-67
2022/06/09 14:50:08;;;;;;;;;;;19.90;99.90;;;;;;5073745;28;19924;-67
2022/06/09 14:52:35;;;;;;;;;;;19.70;99.90;;;;;;5102635;28;19928;-65
2022/06/09 14:55:02;;;;;;;;;;;19.60;99.90;;;;;;5091255;28;20396;-67